createdAt,value
2019-01-25T00:00:06.679Z,32.80
2019-01-25T00:01:06.640Z,32.70
2019-01-25T00:02:06.601Z,33.50
2019-01-25T00:03:10.371Z,33.80
2019-01-25T00:04:06.522Z,33.10
2019-01-25T00:05:06.484Z,33.60
2019-01-25T00:06:06.449Z,34.50
2019-01-25T00:07:06.408Z,34.20
2019-01-25T00:08:06.367Z,35.50
2019-01-25T00:09:06.329Z,34.10
2019-01-25T00:10:06.289Z,33.80
2019-01-25T00:11:06.251Z,33.50
2019-01-25T00:12:06.211Z,32.60
2019-01-25T00:13:06.175Z,34.00
2019-01-25T00:14:06.134Z,35.10
2019-01-25T00:15:06.096Z,34.90
2019-01-25T00:16:06.056Z,34.50
2019-01-25T00:17:06.030Z,35.60
2019-01-25T00:18:05.979Z,34.80
2019-01-25T00:19:05.940Z,33.90
2019-01-25T00:20:05.966Z,36.10
2019-01-25T00:21:05.861Z,32.90
2019-01-25T00:22:05.825Z,32.70
2019-01-25T00:23:05.784Z,33.40
2019-01-25T00:24:05.746Z,34.10
2019-01-25T00:25:05.762Z,34.70
2019-01-25T00:26:05.669Z,33.60
2019-01-25T00:27:05.631Z,34.20
2019-01-25T00:28:05.591Z,35.60
2019-01-25T00:29:05.552Z,33.70
2019-01-25T00:30:05.512Z,33.80
2019-01-25T00:31:05.475Z,34.40
2019-01-25T00:32:05.434Z,34.10
2019-01-25T00:33:05.396Z,33.90
2019-01-25T00:34:05.358Z,32.80
2019-01-25T00:35:05.319Z,33.50
2019-01-25T00:36:05.281Z,33.60
2019-01-25T00:37:05.241Z,33.90
2019-01-25T00:38:05.205Z,32.70
2019-01-25T00:39:05.164Z,34.10
2019-01-25T00:40:06.394Z,34.40
2019-01-25T00:41:05.086Z,35.00
2019-01-25T00:42:05.049Z,34.00
2019-01-25T00:43:05.011Z,34.70
2019-01-25T00:44:04.970Z,35.20
2019-01-25T00:45:04.934Z,34.90
2019-01-25T00:46:04.893Z,34.30
2019-01-25T00:47:04.854Z,34.10
2019-01-25T00:48:04.814Z,35.60
2019-01-25T00:49:04.777Z,33.30
2019-01-25T00:50:04.737Z,35.80
2019-01-25T00:51:04.698Z,34.70
2019-01-25T00:52:04.660Z,35.40
2019-01-25T00:53:04.622Z,36.40
2019-01-25T00:54:04.582Z,35.40
2019-01-25T00:55:04.543Z,35.20
2019-01-25T00:56:04.506Z,33.50
2019-01-25T00:57:04.466Z,34.40
2019-01-25T00:58:04.430Z,35.10
2019-01-25T00:59:04.388Z,35.70
2019-01-25T01:00:04.350Z,34.90
2019-01-25T01:01:04.312Z,34.50
2019-01-25T01:02:04.274Z,34.40
2019-01-25T01:03:04.234Z,35.90
2019-01-25T01:04:04.195Z,35.10
2019-01-25T01:05:04.158Z,34.30
2019-01-25T01:06:04.119Z,33.60
2019-01-25T01:07:04.080Z,34.00
2019-01-25T01:08:04.040Z,33.50
2019-01-25T01:09:04.003Z,32.80
2019-01-25T01:10:03.963Z,33.40
2019-01-25T01:11:03.923Z,34.10
2019-01-25T01:12:03.886Z,34.10
2019-01-25T01:13:03.849Z,33.60
2019-01-25T01:14:03.808Z,33.40
2019-01-25T01:15:03.769Z,33.90
2019-01-25T01:16:03.730Z,34.10
2019-01-25T01:17:03.692Z,33.00
2019-01-25T01:18:03.653Z,35.20
2019-01-25T01:19:03.613Z,33.60
2019-01-25T01:20:03.575Z,32.70
2019-01-25T01:21:03.536Z,34.00
2019-01-25T01:22:03.502Z,34.10
2019-01-25T01:23:03.459Z,34.50
2019-01-25T01:24:03.421Z,33.60
2019-01-25T01:25:03.385Z,35.00
2019-01-25T01:26:03.343Z,34.50
2019-01-25T01:27:03.303Z,33.80
2019-01-25T01:28:03.264Z,34.20
2019-01-25T01:29:03.227Z,34.70
2019-01-25T01:30:03.186Z,33.00
2019-01-25T01:31:03.146Z,32.90
2019-01-25T01:32:03.110Z,34.60
2019-01-25T01:33:03.070Z,33.70
2019-01-25T01:34:03.032Z,35.00
2019-01-25T01:35:02.991Z,34.90
2019-01-25T01:36:02.987Z,34.20
2019-01-25T01:37:02.914Z,34.20
2019-01-25T01:38:02.875Z,33.80
2019-01-25T01:39:02.837Z,34.30
2019-01-25T01:40:02.799Z,35.10
2019-01-25T01:41:02.758Z,35.30
2019-01-25T01:42:02.720Z,34.70
2019-01-25T01:43:02.682Z,35.50
2019-01-25T01:44:02.640Z,35.20
2019-01-25T01:45:02.603Z,36.20
2019-01-25T01:46:02.563Z,34.60
2019-01-25T01:47:02.525Z,35.10
2019-01-25T01:48:02.487Z,34.90
2019-01-25T01:49:02.449Z,35.20
2019-01-25T01:50:02.409Z,37.50
2019-01-25T01:51:02.370Z,35.60
2019-01-25T01:52:02.331Z,34.50
2019-01-25T01:53:02.291Z,34.90
2019-01-25T01:54:02.255Z,34.20
2019-01-25T01:55:02.213Z,34.50
2019-01-25T01:56:02.176Z,35.60
2019-01-25T01:57:02.138Z,36.30
2019-01-25T01:58:02.098Z,34.50
2019-01-25T01:59:02.058Z,35.50
2019-01-25T02:00:02.026Z,34.60
2019-01-25T02:01:01.981Z,34.90
2019-01-25T02:02:01.943Z,35.20
2019-01-25T02:03:01.903Z,36.80
2019-01-25T02:04:01.862Z,34.70
2019-01-25T02:05:01.825Z,34.30
2019-01-25T02:06:01.786Z,35.00
2019-01-25T02:07:01.746Z,35.70
2019-01-25T02:08:01.709Z,35.50
2019-01-25T02:09:01.672Z,35.90
2019-01-25T02:10:01.635Z,35.80
2019-01-25T02:11:01.591Z,35.60
2019-01-25T02:12:01.552Z,35.10
2019-01-25T02:13:01.513Z,33.80
2019-01-25T02:14:01.474Z,34.40
2019-01-25T02:15:01.435Z,34.50
2019-01-25T02:16:01.395Z,35.40
2019-01-25T02:17:01.358Z,33.80
2019-01-25T02:18:01.319Z,33.90
2019-01-25T02:19:01.279Z,35.00
2019-01-25T02:20:01.243Z,34.50
2019-01-25T02:21:01.202Z,36.00
2019-01-25T02:22:01.164Z,36.10
2019-01-25T02:23:01.125Z,35.30
2019-01-25T02:24:01.085Z,35.10
2019-01-25T02:25:01.046Z,36.10
2019-01-25T02:26:01.007Z,36.20
2019-01-25T02:27:00.968Z,34.90
2019-01-25T02:28:00.929Z,36.70
2019-01-25T02:29:00.890Z,36.60
2019-01-25T02:30:00.858Z,34.60
2019-01-25T02:31:00.819Z,35.40
2019-01-25T02:32:00.774Z,36.20
2019-01-25T02:33:00.737Z,35.40
2019-01-25T02:34:00.821Z,35.90
2019-01-25T02:35:00.656Z,35.40
2019-01-25T02:36:00.618Z,36.30
2019-01-25T02:37:00.580Z,35.50
2019-01-25T02:38:00.539Z,35.90
2019-01-25T02:39:00.501Z,36.60
2019-01-25T02:40:00.466Z,35.00
2019-01-25T02:41:00.427Z,38.20
2019-01-25T02:42:00.384Z,38.30
2019-01-25T02:43:00.345Z,36.70
2019-01-25T02:44:00.307Z,36.30
2019-01-25T02:45:00.293Z,37.20
2019-01-25T02:46:00.228Z,37.30
2019-01-25T02:47:00.189Z,37.50
2019-01-25T02:48:00.152Z,36.50
2019-01-25T02:49:00.112Z,36.70
2019-01-25T02:50:00.260Z,36.30
2019-01-25T02:51:00.034Z,36.80
2019-01-25T02:51:59.994Z,36.30
2019-01-25T02:53:03.823Z,35.70
2019-01-25T02:53:59.920Z,37.70
2019-01-25T02:54:59.886Z,37.10
2019-01-25T02:55:59.840Z,37.70
2019-01-25T02:56:59.800Z,37.20
2019-01-25T02:57:59.763Z,36.80
2019-01-25T02:58:59.724Z,37.70
2019-01-25T02:59:59.682Z,38.50
2019-01-25T03:00:59.645Z,37.60
2019-01-25T03:01:59.606Z,38.60
2019-01-25T03:02:59.574Z,39.30
2019-01-25T03:03:59.526Z,37.30
2019-01-25T03:04:59.488Z,35.60
2019-01-25T03:05:59.451Z,37.50
2019-01-25T03:06:59.410Z,37.00
2019-01-25T03:07:59.371Z,36.00
2019-01-25T03:08:59.333Z,36.30
2019-01-25T03:09:59.293Z,36.60
2019-01-25T03:10:59.256Z,38.90
2019-01-25T03:11:59.215Z,36.80
2019-01-25T03:12:59.182Z,38.80
2019-01-25T03:13:59.137Z,36.90
2019-01-25T03:14:59.099Z,37.30
2019-01-25T03:15:59.060Z,37.70
2019-01-25T03:16:59.019Z,36.30
2019-01-25T03:17:58.981Z,35.90
2019-01-25T03:18:58.947Z,37.50
2019-01-25T03:19:58.903Z,37.40
2019-01-25T03:20:58.863Z,37.40
2019-01-25T03:21:58.826Z,36.80
2019-01-25T03:22:58.784Z,37.30
2019-01-25T03:23:58.747Z,35.50
2019-01-25T03:24:58.707Z,37.70
2019-01-25T03:25:58.713Z,37.80
2019-01-25T03:26:58.631Z,38.10
2019-01-25T03:27:58.601Z,38.70
2019-01-25T03:28:58.552Z,38.80
2019-01-25T03:29:58.512Z,38.90
2019-01-25T03:30:58.474Z,37.90
2019-01-25T03:31:58.446Z,43.60
2019-01-25T03:32:58.396Z,42.70
2019-01-25T03:33:58.358Z,40.50
2019-01-25T03:34:58.317Z,40.50
2019-01-25T03:35:58.281Z,38.60
2019-01-25T03:36:58.239Z,38.00
2019-01-25T03:37:58.201Z,41.00
2019-01-25T03:38:58.162Z,38.30
2019-01-25T03:39:58.122Z,38.40
2019-01-25T03:40:58.087Z,37.60
2019-01-25T03:41:58.047Z,35.30
2019-01-25T03:42:58.007Z,36.10
2019-01-25T03:43:57.970Z,36.30
2019-01-25T03:44:57.927Z,37.30
2019-01-25T03:45:57.889Z,35.70
2019-01-25T03:46:57.852Z,37.00
2019-01-25T03:47:57.817Z,36.70
2019-01-25T03:48:57.776Z,35.60
2019-01-25T03:49:57.734Z,35.80
2019-01-25T03:50:57.695Z,35.60
2019-01-25T03:51:57.667Z,36.40
2019-01-25T03:52:57.620Z,38.60
2019-01-25T03:53:57.577Z,35.70
2019-01-25T03:54:57.538Z,35.70
2019-01-25T03:55:57.501Z,36.20
2019-01-25T03:56:57.463Z,35.80
2019-01-25T03:57:57.427Z,36.50
2019-01-25T03:58:57.384Z,36.80
2019-01-25T03:59:57.344Z,34.70
2019-01-25T04:00:57.307Z,32.50
2019-01-25T04:01:57.266Z,35.00
2019-01-25T04:02:57.227Z,35.00
2019-01-25T04:03:57.188Z,35.70
2019-01-25T04:04:57.151Z,37.50
2019-01-25T04:05:57.111Z,35.20
2019-01-25T04:06:57.072Z,35.20
2019-01-25T04:07:57.033Z,35.40
2019-01-25T04:08:56.993Z,35.50
2019-01-25T04:09:56.956Z,37.50
2019-01-25T04:11:03.485Z,35.60
2019-01-25T04:11:56.876Z,37.20
2019-01-25T04:12:56.839Z,37.00
2019-01-25T04:13:56.798Z,35.90
2019-01-25T04:14:56.758Z,34.60
2019-01-25T04:15:56.762Z,36.10
2019-01-25T04:16:56.681Z,34.90
2019-01-25T04:17:56.644Z,36.50
2019-01-25T04:18:56.602Z,34.40
2019-01-25T04:19:56.563Z,36.10
2019-01-25T04:20:56.528Z,35.70
2019-01-25T04:21:56.489Z,35.90
2019-01-25T04:22:56.447Z,36.00
2019-01-25T04:23:56.407Z,36.60
2019-01-25T04:24:56.369Z,36.70
2019-01-25T04:25:56.330Z,36.40
2019-01-25T04:26:56.289Z,37.80
2019-01-25T04:27:56.252Z,36.90
2019-01-25T04:28:56.216Z,36.40
2019-01-25T04:29:56.173Z,36.20
2019-01-25T04:30:56.136Z,37.40
2019-01-25T04:31:56.095Z,36.20
2019-01-25T04:32:56.059Z,37.70
2019-01-25T04:33:56.017Z,37.30
2019-01-25T04:34:55.977Z,35.00
2019-01-25T04:35:55.947Z,37.20
2019-01-25T04:36:55.903Z,37.00
2019-01-25T04:37:55.863Z,38.20
2019-01-25T04:38:55.823Z,38.10
2019-01-25T04:39:55.783Z,38.10
2019-01-25T04:40:55.747Z,36.40
2019-01-25T04:41:55.714Z,38.40
2019-01-25T04:42:55.666Z,36.70
2019-01-25T04:43:55.627Z,37.10
2019-01-25T04:44:55.589Z,37.40
2019-01-25T04:45:55.551Z,35.80
2019-01-25T04:46:55.512Z,37.10
2019-01-25T04:47:55.472Z,37.40
2019-01-25T04:48:55.436Z,37.70
2019-01-25T04:49:55.395Z,36.30
2019-01-25T04:50:55.357Z,37.40
2019-01-25T04:51:55.314Z,35.80
2019-01-25T04:52:55.415Z,36.40
2019-01-25T04:53:55.245Z,35.70
2019-01-25T04:54:55.198Z,36.30
2019-01-25T04:55:55.160Z,38.00
2019-01-25T04:56:55.122Z,36.00
2019-01-25T04:57:55.083Z,37.30
2019-01-25T04:58:55.042Z,35.40
2019-01-25T04:59:55.107Z,35.90
2019-01-25T05:00:54.967Z,37.10
2019-01-25T05:01:54.928Z,37.00
2019-01-25T05:02:54.886Z,35.30
2019-01-25T05:03:54.846Z,37.10
2019-01-25T05:04:54.807Z,37.80
2019-01-25T05:05:54.771Z,36.60
2019-01-25T05:06:54.732Z,65.70
2019-01-25T05:07:54.691Z,138.90
2019-01-25T05:08:54.652Z,57.20
2019-01-25T05:09:54.615Z,39.30
2019-01-25T05:10:54.575Z,38.20
2019-01-25T05:11:54.536Z,39.80
2019-01-25T05:12:54.499Z,38.70
2019-01-25T05:13:54.464Z,36.80
2019-01-25T05:14:54.418Z,38.40
2019-01-25T05:15:54.380Z,36.80
2019-01-25T05:16:54.347Z,38.10
2019-01-25T05:17:54.303Z,36.90
2019-01-25T05:18:54.264Z,48.10
2019-01-25T05:19:54.225Z,63.50
2019-01-25T05:20:54.186Z,68.10
2019-01-25T05:21:54.147Z,43.10
2019-01-25T05:22:54.105Z,39.70
2019-01-25T05:23:54.067Z,38.90
2019-01-25T05:24:54.029Z,38.30
2019-01-25T05:25:53.990Z,37.00
2019-01-25T05:26:53.950Z,36.80
2019-01-25T05:27:53.912Z,37.30
2019-01-25T05:28:53.874Z,37.40
2019-01-25T05:29:53.834Z,39.20
2019-01-25T05:30:53.799Z,37.10
2019-01-25T05:31:53.755Z,36.60
2019-01-25T05:32:53.725Z,36.60
2019-01-25T05:33:53.680Z,38.90
2019-01-25T05:34:53.638Z,37.50
2019-01-25T05:35:53.600Z,36.50
2019-01-25T05:36:53.561Z,37.80
2019-01-25T05:37:53.521Z,36.90
2019-01-25T05:38:53.483Z,36.80
2019-01-25T05:39:53.444Z,37.70
2019-01-25T05:40:53.403Z,37.10
2019-01-25T05:41:53.366Z,39.00
2019-01-25T05:42:53.327Z,36.80
2019-01-25T05:43:53.288Z,35.90
2019-01-25T05:44:53.247Z,38.60
2019-01-25T05:45:53.359Z,36.80
2019-01-25T05:46:53.170Z,39.30
2019-01-25T05:47:53.131Z,38.30
2019-01-25T05:48:53.092Z,37.80
2019-01-25T05:49:53.052Z,39.20
2019-01-25T05:50:53.014Z,38.20
2019-01-25T05:51:52.974Z,37.50
2019-01-25T05:52:52.940Z,38.00
2019-01-25T05:53:52.904Z,39.10
2019-01-25T05:54:52.857Z,38.30
2019-01-25T05:55:52.818Z,39.80
2019-01-25T05:56:52.781Z,39.00
2019-01-25T05:57:52.740Z,39.10
2019-01-25T05:58:52.700Z,38.90
2019-01-25T05:59:52.662Z,37.50
2019-01-25T06:00:52.623Z,37.30
2019-01-25T06:01:52.589Z,39.50
2019-01-25T06:02:52.543Z,39.20
2019-01-25T06:03:52.506Z,39.10
2019-01-25T06:04:52.465Z,38.20
2019-01-25T06:05:52.428Z,37.70
2019-01-25T06:06:52.386Z,37.60
2019-01-25T06:07:52.348Z,39.90
2019-01-25T06:08:52.309Z,39.20
2019-01-25T06:09:52.278Z,39.80
2019-01-25T06:10:52.231Z,38.50
2019-01-25T06:11:52.191Z,39.00
2019-01-25T06:12:52.153Z,38.60
2019-01-25T06:13:52.116Z,38.30
2019-01-25T06:14:52.076Z,40.50
2019-01-25T06:15:52.035Z,39.10
2019-01-25T06:16:51.997Z,40.00
2019-01-25T06:17:51.958Z,38.30
2019-01-25T06:18:51.918Z,38.70
2019-01-25T06:19:51.879Z,40.60
2019-01-25T06:20:51.841Z,39.50
2019-01-25T06:21:51.803Z,38.90
2019-01-25T06:22:51.762Z,41.20
2019-01-25T06:23:51.724Z,39.20
2019-01-25T06:24:51.684Z,39.90
2019-01-25T06:25:51.644Z,39.60
2019-01-25T06:26:51.606Z,38.00
2019-01-25T06:27:51.565Z,39.30
2019-01-25T06:28:51.528Z,40.60
2019-01-25T06:29:51.489Z,39.40
2019-01-25T06:30:51.447Z,38.80
2019-01-25T06:31:51.410Z,40.80
2019-01-25T06:32:51.371Z,38.70
2019-01-25T06:33:51.332Z,40.80
2019-01-25T06:34:51.291Z,39.00
2019-01-25T06:35:51.253Z,38.90
2019-01-25T06:36:51.214Z,38.50
2019-01-25T06:37:51.173Z,38.60
2019-01-25T06:38:51.135Z,40.00
2019-01-25T06:39:51.095Z,38.80
2019-01-25T06:40:51.056Z,41.40
2019-01-25T06:41:51.017Z,41.00
2019-01-25T06:42:50.977Z,39.70
2019-01-25T06:43:50.938Z,40.80
2019-01-25T06:44:50.901Z,40.10
2019-01-25T06:45:50.860Z,41.60
2019-01-25T06:46:50.821Z,46.60
2019-01-25T06:47:50.785Z,45.60
2019-01-25T06:48:50.741Z,56.30
2019-01-25T06:49:50.703Z,51.00
2019-01-25T06:50:50.665Z,44.70
2019-01-25T06:51:50.625Z,42.10
2019-01-25T06:52:50.584Z,42.00
2019-01-25T06:53:50.547Z,41.00
2019-01-25T06:54:50.506Z,40.90
2019-01-25T06:55:50.469Z,43.70
2019-01-25T06:56:50.429Z,42.90
2019-01-25T06:57:50.390Z,43.30
2019-01-25T06:58:50.349Z,42.60
2019-01-25T06:59:50.310Z,43.30
2019-01-25T07:00:50.271Z,42.10
2019-01-25T07:01:50.233Z,43.40
2019-01-25T07:02:50.192Z,42.70
2019-01-25T07:03:50.153Z,46.00
2019-01-25T07:04:50.114Z,43.50
2019-01-25T07:05:50.076Z,45.50
2019-01-25T07:06:50.037Z,42.60
2019-01-25T07:07:49.996Z,43.80
2019-01-25T07:08:49.960Z,41.90
2019-01-25T07:09:49.920Z,38.80
2019-01-25T07:10:49.878Z,40.30
2019-01-25T07:11:51.699Z,41.40
2019-01-25T07:12:49.801Z,41.70
2019-01-25T07:13:49.762Z,40.20
2019-01-25T07:14:49.723Z,39.60
2019-01-25T07:15:49.682Z,38.50
2019-01-25T07:16:49.643Z,39.70
2019-01-25T07:17:49.606Z,37.80
2019-01-25T07:18:49.565Z,40.50
2019-01-25T07:19:49.526Z,38.90
2019-01-25T07:20:49.487Z,41.70
2019-01-25T07:21:49.448Z,42.20
2019-01-25T07:22:49.410Z,40.40
2019-01-25T07:23:49.368Z,41.90
2019-01-25T07:24:49.331Z,40.00
2019-01-25T07:25:49.293Z,41.70
2019-01-25T07:26:49.251Z,39.70
2019-01-25T07:27:49.211Z,41.50
2019-01-25T07:28:49.172Z,39.90
2019-01-25T07:29:49.152Z,40.30
2019-01-25T07:30:49.119Z,40.40
2019-01-25T07:31:49.064Z,41.70
2019-01-25T07:32:49.016Z,41.70
2019-01-25T07:33:49.040Z,42.00
2019-01-25T07:34:48.937Z,42.70
2019-01-25T07:35:48.898Z,42.50
2019-01-25T07:36:48.859Z,41.70
2019-01-25T07:37:48.834Z,40.50
2019-01-25T07:38:48.780Z,41.60
2019-01-25T07:39:48.741Z,40.60
2019-01-25T07:40:48.704Z,38.40
2019-01-25T07:41:48.677Z,38.60
2019-01-25T07:42:48.669Z,39.50
2019-01-25T07:43:48.588Z,41.80
2019-01-25T07:44:48.730Z,38.90
2019-01-25T07:45:48.507Z,41.40
2019-01-25T07:46:48.482Z,40.30
2019-01-25T07:47:48.428Z,44.00
2019-01-25T07:48:48.390Z,42.00
2019-01-25T07:49:48.350Z,41.70
2019-01-25T07:50:48.312Z,46.00
2019-01-25T07:51:48.272Z,94.50
2019-01-25T07:52:48.245Z,58.50
2019-01-25T07:53:48.351Z,47.80
2019-01-25T07:54:48.154Z,42.90
2019-01-25T07:55:48.117Z,41.70
2019-01-25T07:56:48.080Z,43.10
2019-01-25T07:57:48.038Z,43.00
2019-01-25T07:58:48.045Z,45.10
2019-01-25T07:59:47.985Z,42.40
2019-01-25T08:00:47.931Z,46.90
2019-01-25T08:01:47.928Z,46.20
2019-01-25T08:02:47.962Z,45.10
2019-01-25T08:03:47.809Z,43.10
2019-01-25T08:04:47.765Z,43.10
2019-01-25T08:05:47.725Z,44.30
2019-01-25T08:06:47.693Z,46.30
2019-01-25T08:07:47.647Z,42.70
2019-01-25T08:08:47.608Z,43.30
2019-01-25T08:09:47.572Z,47.90
2019-01-25T08:10:47.529Z,48.20
2019-01-25T08:11:47.550Z,52.50
2019-01-25T08:12:47.518Z,51.50
2019-01-25T08:13:47.414Z,51.00
2019-01-25T08:14:47.378Z,51.60
2019-01-25T08:15:47.501Z,47.50
2019-01-25T08:16:47.297Z,43.50
2019-01-25T08:17:47.258Z,47.20
2019-01-25T08:18:47.229Z,43.00
2019-01-25T08:19:47.179Z,42.60
2019-01-25T08:20:47.162Z,41.30
2019-01-25T08:21:47.109Z,40.40
2019-01-25T08:22:47.063Z,42.00
2019-01-25T08:23:47.059Z,40.70
2019-01-25T08:24:47.005Z,40.90
2019-01-25T08:25:47.001Z,42.00
2019-01-25T08:26:46.907Z,41.40
2019-01-25T08:27:46.888Z,41.70
2019-01-25T08:28:46.887Z,41.40
2019-01-25T08:29:46.803Z,43.40
2019-01-25T08:30:46.812Z,44.40
2019-01-25T08:31:47.098Z,49.20
2019-01-25T08:32:46.677Z,45.50
2019-01-25T08:33:46.667Z,46.90
2019-01-25T08:34:46.598Z,46.20
2019-01-25T08:35:46.579Z,43.20
2019-01-25T08:36:46.547Z,51.00
2019-01-25T08:37:46.509Z,45.00
2019-01-25T08:38:46.442Z,58.10
2019-01-25T08:39:46.405Z,45.10
2019-01-25T08:40:46.368Z,50.40
2019-01-25T08:41:46.374Z,47.60
2019-01-25T08:42:46.290Z,47.90
2019-01-25T08:43:46.252Z,51.10
2019-01-25T08:44:46.213Z,43.60
2019-01-25T08:45:46.205Z,43.80
2019-01-25T08:46:46.135Z,45.00
2019-01-25T08:47:46.147Z,41.80
2019-01-25T08:48:46.114Z,46.00
2019-01-25T08:49:46.030Z,45.10
2019-01-25T08:50:46.004Z,45.40
2019-01-25T08:51:46.003Z,44.20
2019-01-25T08:52:45.926Z,45.10
2019-01-25T08:53:45.867Z,47.10
2019-01-25T08:54:45.828Z,44.50
2019-01-25T08:55:45.803Z,48.20
2019-01-25T08:56:45.777Z,44.90
2019-01-25T08:57:45.715Z,51.70
2019-01-25T08:58:45.681Z,45.50
2019-01-25T08:59:45.904Z,46.70
2019-01-25T09:00:45.597Z,43.70
2019-01-25T09:01:45.559Z,43.50
2019-01-25T09:02:45.519Z,43.70
2019-01-25T09:03:45.481Z,41.80
2019-01-25T09:04:45.442Z,43.00
2019-01-25T09:05:45.757Z,42.40
2019-01-25T09:06:45.365Z,43.50
2019-01-25T09:07:45.327Z,43.20
2019-01-25T09:08:45.289Z,43.20
2019-01-25T09:09:45.250Z,43.50
2019-01-25T09:10:45.211Z,43.30
2019-01-25T09:11:45.173Z,43.20
2019-01-25T09:12:45.135Z,44.70
2019-01-25T09:13:45.103Z,44.90
2019-01-25T09:14:45.057Z,43.70
2019-01-25T09:15:45.019Z,43.80
2019-01-25T09:16:44.982Z,43.70
2019-01-25T09:17:44.941Z,44.60
2019-01-25T09:18:44.903Z,43.80
2019-01-25T09:19:44.869Z,43.40
2019-01-25T09:20:44.835Z,41.10
2019-01-25T09:21:44.790Z,43.80
2019-01-25T09:22:44.752Z,42.70
2019-01-25T09:23:44.712Z,41.70
2019-01-25T09:24:44.676Z,41.20
2019-01-25T09:25:44.637Z,40.70
2019-01-25T09:26:44.597Z,44.30
2019-01-25T09:27:44.560Z,41.20
2019-01-25T09:28:44.524Z,41.40
2019-01-25T09:29:44.483Z,41.60
2019-01-25T09:30:44.448Z,40.40
2019-01-25T09:31:44.408Z,43.60
2019-01-25T09:32:44.370Z,42.20
2019-01-25T09:33:44.334Z,41.70
2019-01-25T09:34:44.292Z,42.40
2019-01-25T09:35:44.254Z,41.40
2019-01-25T09:36:44.217Z,40.60
2019-01-25T09:37:44.178Z,42.30
2019-01-25T09:38:44.138Z,41.50
2019-01-25T09:39:44.101Z,43.30
2019-01-25T09:40:44.063Z,41.40
2019-01-25T09:41:44.026Z,40.10
2019-01-25T09:42:43.988Z,41.60
2019-01-25T09:43:43.948Z,42.60
2019-01-25T09:44:43.911Z,43.40
2019-01-25T09:45:43.877Z,43.30
2019-01-25T09:46:43.834Z,42.00
2019-01-25T09:47:43.796Z,42.90
2019-01-25T09:48:43.759Z,42.70
2019-01-25T09:49:43.720Z,42.80
2019-01-25T09:50:43.681Z,40.10
2019-01-25T09:51:43.644Z,44.70
2019-01-25T09:52:43.606Z,42.10
2019-01-25T09:53:43.568Z,39.60
2019-01-25T09:54:43.530Z,44.20
2019-01-25T09:55:43.495Z,43.10
2019-01-25T09:56:43.455Z,41.40
2019-01-25T09:57:43.417Z,43.10
2019-01-25T09:58:43.379Z,40.50
2019-01-25T09:59:43.342Z,42.70
2019-01-25T10:00:43.305Z,41.70
2019-01-25T10:01:43.267Z,40.80
2019-01-25T10:02:43.227Z,41.40
2019-01-25T10:03:43.190Z,41.10
2019-01-25T10:04:43.153Z,40.30
2019-01-25T10:05:43.117Z,38.20
2019-01-25T10:06:43.077Z,39.90
2019-01-25T10:07:43.041Z,38.20
2019-01-25T10:08:43.001Z,41.20
2019-01-25T10:09:42.964Z,42.80
2019-01-25T10:10:42.927Z,42.30
2019-01-25T10:11:42.894Z,41.90
2019-01-25T10:12:43.442Z,39.60
2019-01-25T10:13:42.816Z,39.00
2019-01-25T10:14:42.775Z,38.70
2019-01-25T10:15:42.740Z,40.60
2019-01-25T10:16:42.701Z,38.00
2019-01-25T10:17:42.665Z,37.90
2019-01-25T10:18:42.627Z,38.00
2019-01-25T10:19:42.619Z,35.70
2019-01-25T10:20:42.551Z,36.90
2019-01-25T10:21:42.514Z,38.20
2019-01-25T10:22:42.476Z,35.90
2019-01-25T10:23:42.438Z,36.10
2019-01-25T10:24:42.402Z,37.50
2019-01-25T10:25:42.366Z,37.60
2019-01-25T10:26:42.330Z,35.80
2019-01-25T10:27:42.290Z,36.90
2019-01-25T10:28:42.252Z,35.50
2019-01-25T10:29:42.215Z,38.30
2019-01-25T10:30:42.227Z,37.30
2019-01-25T10:31:42.140Z,36.30
2019-01-25T10:32:42.105Z,35.80
2019-01-25T10:33:42.066Z,30.60
2019-01-25T10:34:42.029Z,33.00
2019-01-25T10:35:41.991Z,33.60
2019-01-25T10:36:41.953Z,34.40
2019-01-25T10:37:41.917Z,35.70
2019-01-25T10:38:41.880Z,32.60
2019-01-25T10:39:41.842Z,35.40
2019-01-25T10:40:41.804Z,35.20
2019-01-25T10:41:41.769Z,32.00
2019-01-25T10:42:45.631Z,30.30
2019-01-25T10:43:41.694Z,27.90
2019-01-25T10:44:41.657Z,30.10
2019-01-25T10:45:41.618Z,30.60
2019-01-25T10:46:41.581Z,29.80
2019-01-25T10:47:41.544Z,28.90
2019-01-25T10:48:41.507Z,31.70
2019-01-25T10:49:41.470Z,33.20
2019-01-25T10:50:41.433Z,31.10
2019-01-25T10:51:41.397Z,30.20
2019-01-25T10:52:41.358Z,29.00
2019-01-25T10:53:41.321Z,30.60
2019-01-25T10:54:41.284Z,28.90
2019-01-25T10:55:41.247Z,27.60
2019-01-25T10:56:41.984Z,28.50
2019-01-25T10:57:41.173Z,28.60
2019-01-25T10:58:41.136Z,27.60
2019-01-25T10:59:41.099Z,28.90
2019-01-25T11:00:41.064Z,27.90
2019-01-25T11:01:41.025Z,26.50
2019-01-25T11:02:40.989Z,28.00
2019-01-25T11:03:40.950Z,28.10
2019-01-25T11:04:40.914Z,28.20
2019-01-25T11:05:40.877Z,28.10
2019-01-25T11:06:40.839Z,28.30
2019-01-25T11:07:40.801Z,28.80
2019-01-25T11:08:40.765Z,27.60
2019-01-25T11:09:40.729Z,29.00
2019-01-25T11:10:40.691Z,26.20
2019-01-25T11:11:40.655Z,27.40
2019-01-25T11:12:40.618Z,28.50
2019-01-25T11:13:40.582Z,27.20
2019-01-25T11:14:40.544Z,25.90
2019-01-25T11:15:40.507Z,26.40
2019-01-25T11:16:40.471Z,25.80
2019-01-25T11:17:40.434Z,24.40
2019-01-25T11:18:40.396Z,23.50
2019-01-25T11:19:40.360Z,26.10
2019-01-25T11:20:40.324Z,28.50
2019-01-25T11:21:40.288Z,27.40
2019-01-25T11:22:40.249Z,26.90
2019-01-25T11:23:40.213Z,27.30
2019-01-25T11:24:40.178Z,27.60
2019-01-25T11:25:40.140Z,27.10
2019-01-25T11:26:40.105Z,27.90
2019-01-25T11:27:40.067Z,27.90
2019-01-25T11:28:40.032Z,28.00
2019-01-25T11:29:39.995Z,28.40
2019-01-25T11:30:39.956Z,26.80
2019-01-25T11:31:39.923Z,27.80
2019-01-25T11:32:39.884Z,27.10
2019-01-25T11:33:39.851Z,27.20
2019-01-25T11:34:39.810Z,26.20
2019-01-25T11:35:39.774Z,27.20
2019-01-25T11:36:39.738Z,28.30
2019-01-25T11:37:39.702Z,27.00
2019-01-25T11:38:39.663Z,27.80
2019-01-25T11:39:39.629Z,28.10
2019-01-25T11:40:39.591Z,26.80
2019-01-25T11:41:39.553Z,26.50
2019-01-25T11:42:39.517Z,26.00
2019-01-25T11:43:39.480Z,26.80
2019-01-25T11:44:39.443Z,28.10
2019-01-25T11:45:39.406Z,26.30
2019-01-25T11:46:39.369Z,27.30
2019-01-25T11:47:39.332Z,27.50
2019-01-25T11:48:39.300Z,26.50
2019-01-25T11:49:39.259Z,26.60
2019-01-25T11:50:39.222Z,26.00
2019-01-25T11:51:39.183Z,26.20
2019-01-25T11:52:39.149Z,26.70
2019-01-25T11:53:39.110Z,25.50
2019-01-25T11:54:39.072Z,26.00
2019-01-25T11:55:39.037Z,27.20
2019-01-25T11:56:39.003Z,26.30
2019-01-25T11:57:38.968Z,26.00
2019-01-25T11:58:38.926Z,27.30
2019-01-25T11:59:39.140Z,27.70
2019-01-25T12:00:38.852Z,27.10
2019-01-25T12:01:38.815Z,27.10
2019-01-25T12:02:38.776Z,28.00
2019-01-25T12:03:38.741Z,27.20
2019-01-25T12:04:38.704Z,27.30
2019-01-25T12:05:38.668Z,27.00
2019-01-25T12:06:38.628Z,26.80
2019-01-25T12:07:38.591Z,27.10
2019-01-25T12:08:38.555Z,28.60
2019-01-25T12:09:38.526Z,29.90
2019-01-25T12:10:38.481Z,29.70
2019-01-25T12:11:38.444Z,29.10
2019-01-25T12:12:38.407Z,31.40
2019-01-25T12:13:38.370Z,31.70
2019-01-25T12:14:38.331Z,33.80
2019-01-25T12:15:38.295Z,32.10
2019-01-25T12:16:38.257Z,32.10
2019-01-25T12:17:38.224Z,31.80
2019-01-25T12:18:38.182Z,32.00
2019-01-25T12:19:38.145Z,31.40
2019-01-25T12:20:38.110Z,30.80
2019-01-25T12:21:38.070Z,30.70
2019-01-25T12:22:38.058Z,30.50
2019-01-25T12:23:37.996Z,30.80
2019-01-25T12:24:37.960Z,30.40
2019-01-25T12:25:37.930Z,30.30
2019-01-25T12:26:37.883Z,30.20
2019-01-25T12:27:37.846Z,32.60
2019-01-25T12:28:37.810Z,31.00
2019-01-25T12:29:37.775Z,31.10
2019-01-25T12:30:38.366Z,31.40
2019-01-25T12:31:37.697Z,31.70
2019-01-25T12:32:37.660Z,31.00
2019-01-25T12:33:37.627Z,29.10
2019-01-25T12:34:37.585Z,30.30
2019-01-25T12:35:37.550Z,30.10
2019-01-25T12:36:37.511Z,30.80
2019-01-25T12:37:37.475Z,32.20
2019-01-25T12:38:37.437Z,32.20
2019-01-25T12:39:37.401Z,31.00
2019-01-25T12:40:41.798Z,29.50
2019-01-25T12:41:37.326Z,31.00
2019-01-25T12:42:37.288Z,30.20
2019-01-25T12:43:37.254Z,29.90
2019-01-25T12:44:37.214Z,29.30
2019-01-25T12:45:37.177Z,31.10
2019-01-25T12:46:37.140Z,31.40
2019-01-25T12:47:37.103Z,31.80
2019-01-25T12:48:37.067Z,32.30
2019-01-25T12:49:37.028Z,31.30
2019-01-25T12:50:36.998Z,32.60
2019-01-25T12:51:36.955Z,30.40